createdAt,value
2017-12-27T00:07:52.085Z,5.60
2017-12-27T00:23:56.883Z,5.30
2017-12-27T00:26:31.606Z,5.20
2017-12-27T00:29:06.370Z,5.20
2017-12-27T00:31:34.624Z,5.20
2017-12-27T00:34:02.938Z,5.10
2017-12-27T00:36:31.249Z,5.10
2017-12-27T00:38:59.565Z,5.10
2017-12-27T00:41:27.830Z,5.10
2017-12-27T00:43:56.544Z,5.00
2017-12-27T00:46:24.842Z,5.00
2017-12-27T00:48:53.127Z,5.00
2017-12-27T00:51:21.431Z,5.00
2017-12-27T00:53:50.463Z,5.00
2017-12-27T00:56:18.760Z,5.00
2017-12-27T00:58:47.036Z,5.00
2017-12-27T01:01:15.584Z,5.00
2017-12-27T01:03:44.613Z,4.90
2017-12-27T01:06:12.872Z,4.90
2017-12-27T01:08:41.191Z,4.90
2017-12-27T01:11:09.460Z,4.90
2017-12-27T01:13:37.781Z,4.90
2017-12-27T01:16:06.821Z,4.80
2017-12-27T01:18:35.523Z,4.80
2017-12-27T01:21:03.778Z,4.80
2017-12-27T01:23:32.051Z,4.80
2017-12-27T01:26:01.106Z,4.70
2017-12-27T01:28:30.170Z,4.70
2017-12-27T01:30:58.448Z,4.70
2017-12-27T01:33:26.714Z,4.70
2017-12-27T01:35:55.590Z,4.70
2017-12-27T01:38:23.877Z,4.70
2017-12-27T01:40:52.136Z,4.70
2017-12-27T01:43:20.438Z,4.60
2017-12-27T01:45:48.708Z,4.60
2017-12-27T01:48:17.022Z,4.60
2017-12-27T01:50:45.295Z,4.60
2017-12-27T01:53:13.612Z,4.60
2017-12-27T01:55:41.976Z,4.60
2017-12-27T01:58:11.292Z,4.50
2017-12-27T02:00:39.565Z,4.50
2017-12-27T02:03:07.847Z,4.50
2017-12-27T02:05:36.128Z,4.50
2017-12-27T02:08:04.401Z,4.50
2017-12-27T02:10:32.749Z,4.40
2017-12-27T02:13:01.455Z,4.40
2017-12-27T02:15:30.797Z,4.40
2017-12-27T02:17:59.071Z,4.40
2017-12-27T02:20:27.339Z,4.40
2017-12-27T02:22:55.654Z,4.40
2017-12-27T02:25:23.943Z,4.40
2017-12-27T02:27:52.538Z,4.40
2017-12-27T02:30:20.820Z,4.40
2017-12-27T02:32:49.848Z,4.40
2017-12-27T02:35:18.138Z,4.40
2017-12-27T02:37:46.411Z,4.40
2017-12-27T02:40:25.330Z,4.40
2017-12-27T02:42:53.617Z,4.40
2017-12-27T02:45:22.496Z,4.40
2017-12-27T02:47:51.506Z,4.40
2017-12-27T02:50:19.777Z,4.40
2017-12-27T02:52:48.072Z,4.40
2017-12-27T02:55:17.124Z,4.40
2017-12-27T02:57:46.212Z,4.40
2017-12-27T03:00:15.239Z,4.40
2017-12-27T03:02:43.538Z,4.40
2017-12-27T03:05:11.852Z,4.40
2017-12-27T03:07:40.508Z,4.40
2017-12-27T03:10:08.789Z,4.50
2017-12-27T03:12:37.060Z,4.50
2017-12-27T03:15:05.342Z,4.40
2017-12-27T03:17:33.625Z,4.50
2017-12-27T03:20:02.235Z,4.40
2017-12-27T03:22:30.504Z,4.40
2017-12-27T03:24:58.804Z,4.40
2017-12-27T03:27:27.860Z,4.40
2017-12-27T03:29:56.131Z,4.40
2017-12-27T03:32:24.440Z,4.40
2017-12-27T03:34:52.710Z,4.40
2017-12-27T03:37:21.333Z,4.40
2017-12-27T03:39:50.388Z,4.40
2017-12-27T03:42:18.729Z,4.40
2017-12-27T03:44:47.073Z,4.40
2017-12-27T03:47:15.395Z,4.40
2017-12-27T03:49:43.684Z,4.40
2017-12-27T03:52:11.984Z,4.30
2017-12-27T03:54:40.551Z,4.30
2017-12-27T03:57:08.809Z,4.30
2017-12-27T03:59:37.400Z,4.30
2017-12-27T04:02:05.688Z,4.30
2017-12-27T04:04:33.986Z,4.30
2017-12-27T04:07:02.359Z,4.20
2017-12-27T04:09:30.639Z,4.20
2017-12-27T04:11:59.211Z,4.20
2017-12-27T04:14:27.531Z,4.20
2017-12-27T04:16:56.604Z,4.10
2017-12-27T04:19:24.888Z,4.10
2017-12-27T04:21:53.920Z,4.10
2017-12-27T04:24:22.216Z,4.10
2017-12-27T04:26:50.517Z,4.10
2017-12-27T04:29:18.802Z,4.20
2017-12-27T04:31:47.055Z,4.10
2017-12-27T04:34:15.358Z,4.10
2017-12-27T04:36:43.644Z,4.00
2017-12-27T04:39:12.004Z,4.00
2017-12-27T04:41:40.285Z,4.00
2017-12-27T04:44:08.571Z,4.00
2017-12-27T04:46:38.021Z,4.00
2017-12-27T04:49:06.330Z,3.90
2017-12-27T04:51:34.594Z,4.00
2017-12-27T04:54:03.109Z,4.00
2017-12-27T04:56:31.377Z,4.10
2017-12-27T04:58:59.717Z,4.10
2017-12-27T05:01:28.871Z,4.30
2017-12-27T05:03:57.476Z,4.30
2017-12-27T05:06:26.530Z,4.30
2017-12-27T05:08:54.837Z,4.30
2017-12-27T05:11:23.167Z,4.30
2017-12-27T05:13:51.471Z,4.30
2017-12-27T05:16:19.983Z,4.30
2017-12-27T05:18:48.256Z,4.30
2017-12-27T05:21:16.807Z,4.30
2017-12-27T05:23:45.111Z,4.40
2017-12-27T05:26:13.362Z,4.40
2017-12-27T05:28:45.124Z,4.40
2017-12-27T05:31:13.910Z,4.50
2017-12-27T05:33:42.735Z,4.60
2017-12-27T05:36:11.001Z,4.70
2017-12-27T05:38:39.564Z,4.80
2017-12-27T05:41:07.876Z,5.00
2017-12-27T05:43:36.141Z,5.10
2017-12-27T05:46:04.424Z,5.20
2017-12-27T05:48:33.499Z,5.20
2017-12-27T05:51:01.910Z,5.20
2017-12-27T05:53:30.173Z,5.30
2017-12-27T05:55:58.721Z,5.40
2017-12-27T05:58:26.972Z,5.40
2017-12-27T06:00:55.248Z,5.50
2017-12-27T06:03:23.557Z,5.50
2017-12-27T06:05:51.822Z,5.70
2017-12-27T06:08:20.479Z,5.80
2017-12-27T06:10:49.513Z,5.90
2017-12-27T06:13:17.768Z,5.90
2017-12-27T06:15:46.064Z,5.90
2017-12-27T06:18:14.316Z,5.90
2017-12-27T06:20:42.603Z,5.90
2017-12-27T06:23:10.870Z,5.90
2017-12-27T06:25:39.157Z,5.80
2017-12-27T06:28:07.495Z,5.80
2017-12-27T06:30:35.790Z,5.70
2017-12-27T06:33:04.093Z,5.70
2017-12-27T06:35:32.376Z,5.70
2017-12-27T06:38:01.048Z,5.70
2017-12-27T06:40:30.049Z,5.70
2017-12-27T06:42:58.308Z,5.70
2017-12-27T06:45:27.386Z,5.70
2017-12-27T06:47:55.644Z,5.70
2017-12-27T06:50:24.212Z,5.60
2017-12-27T06:52:52.485Z,5.60
2017-12-27T06:55:20.765Z,5.60
2017-12-27T06:57:49.098Z,5.60
2017-12-27T07:00:18.134Z,5.50
2017-12-27T07:02:46.740Z,5.50
2017-12-27T07:05:14.996Z,5.40
2017-12-27T07:07:43.273Z,5.40
2017-12-27T07:10:11.592Z,5.30
2017-12-27T07:12:39.968Z,5.30
2017-12-27T07:15:08.853Z,5.30
2017-12-27T07:17:37.107Z,5.20
2017-12-27T07:20:05.372Z,5.20
2017-12-27T07:22:33.678Z,5.20
2017-12-27T07:25:01.957Z,5.20
2017-12-27T07:27:30.542Z,5.20
2017-12-27T07:29:58.802Z,5.10
2017-12-27T07:32:27.061Z,5.10
2017-12-27T07:34:55.361Z,5.20
2017-12-27T07:37:23.671Z,5.20
2017-12-27T07:39:51.967Z,5.20
2017-12-27T07:42:20.996Z,5.20
2017-12-27T07:44:49.559Z,5.20
2017-12-27T07:47:19.523Z,5.30
2017-12-27T07:49:47.792Z,5.20
2017-12-27T07:52:16.082Z,5.30
2017-12-27T07:54:44.372Z,5.20
2017-12-27T07:57:13.010Z,5.30
2017-12-27T07:59:41.273Z,5.30
2017-12-27T08:02:09.558Z,5.30
2017-12-27T08:04:37.848Z,5.40
2017-12-27T08:07:06.116Z,5.40
2017-12-27T08:09:34.660Z,5.40
2017-12-27T08:12:02.904Z,5.50
2017-12-27T08:14:31.339Z,5.50
2017-12-27T08:17:00.374Z,5.60
2017-12-27T08:19:28.671Z,5.60
2017-12-27T08:21:56.990Z,5.60
2017-12-27T08:24:26.057Z,5.70
2017-12-27T08:26:54.650Z,5.70
2017-12-27T08:29:22.968Z,5.80
2017-12-27T08:31:51.242Z,5.90
2017-12-27T08:34:19.526Z,5.90
2017-12-27T08:36:47.792Z,6.00
2017-12-27T08:39:16.134Z,6.10
2017-12-27T08:41:44.404Z,6.10
2017-12-27T08:44:13.069Z,6.10
2017-12-27T08:46:41.348Z,6.20
2017-12-27T08:49:10.792Z,6.20
2017-12-27T08:51:39.120Z,6.30
2017-12-27T08:54:07.392Z,6.30
2017-12-27T08:56:35.686Z,6.30
2017-12-27T08:59:03.948Z,6.40
2017-12-27T09:01:32.507Z,6.40
2017-12-27T09:04:01.537Z,6.40
2017-12-27T09:06:29.821Z,6.40
2017-12-27T09:08:58.125Z,6.50
2017-12-27T09:11:26.409Z,6.50
2017-12-27T09:13:54.726Z,6.40
2017-12-27T09:16:26.624Z,6.40
2017-12-27T09:18:54.954Z,6.40
2017-12-27T09:21:23.206Z,6.40
2017-12-27T09:23:54.344Z,6.40
2017-12-27T09:26:22.644Z,6.40
2017-12-27T09:28:51.670Z,6.40
2017-12-27T09:31:19.974Z,6.40
2017-12-27T09:33:48.604Z,6.40
2017-12-27T09:36:17.675Z,6.40
2017-12-27T09:38:45.933Z,6.40
2017-12-27T09:41:14.480Z,6.40
2017-12-27T09:43:43.550Z,6.50
2017-12-27T09:46:12.596Z,6.50
2017-12-27T09:48:40.891Z,6.50
2017-12-27T09:51:09.838Z,6.50
2017-12-27T09:53:38.143Z,6.50
2017-12-27T09:56:06.441Z,6.60
2017-12-27T09:58:34.720Z,6.60
2017-12-27T10:01:03.021Z,6.60
2017-12-27T10:03:31.298Z,6.60
2017-12-27T10:05:59.615Z,6.50
2017-12-27T10:08:27.908Z,6.50
2017-12-27T10:10:56.187Z,6.40
2017-12-27T10:13:24.465Z,6.40
2017-12-27T10:15:52.758Z,6.30
2017-12-27T10:18:21.319Z,6.20
2017-12-27T10:20:49.644Z,6.10
2017-12-27T10:23:18.863Z,6.10
2017-12-27T10:25:48.655Z,6.00
2017-12-27T10:28:17.829Z,5.90
2017-12-27T10:30:46.148Z,5.90
2017-12-27T10:33:18.078Z,5.90
2017-12-27T10:35:46.414Z,5.90
2017-12-27T10:38:14.720Z,5.90
2017-12-27T10:40:43.914Z,5.90
2017-12-27T10:43:12.188Z,5.90
2017-12-27T10:45:40.493Z,5.90
2017-12-27T10:48:08.745Z,5.90
2017-12-27T10:50:37.019Z,5.90
2017-12-27T10:53:05.316Z,5.90
2017-12-27T10:55:33.624Z,5.90
2017-12-27T10:58:01.988Z,5.90
2017-12-27T11:00:31.048Z,5.90
2017-12-27T11:02:59.407Z,5.90
2017-12-27T11:05:27.667Z,5.90
2017-12-27T11:07:55.935Z,5.90
2017-12-27T11:10:24.220Z,5.90
2017-12-27T11:12:53.491Z,5.90
2017-12-27T11:15:21.769Z,5.90
2017-12-27T11:17:50.036Z,5.90
2017-12-27T11:20:18.534Z,6.00
2017-12-27T11:22:46.793Z,5.90
2017-12-27T11:25:15.078Z,5.90
2017-12-27T11:27:43.830Z,6.00
2017-12-27T11:30:12.130Z,6.00
2017-12-27T11:32:40.509Z,6.10
2017-12-27T11:35:08.791Z,6.10
2017-12-27T11:37:37.140Z,6.20
2017-12-27T11:40:06.160Z,6.40
2017-12-27T11:42:34.425Z,6.40
2017-12-27T11:45:02.739Z,6.50
2017-12-27T11:47:31.016Z,6.60
2017-12-27T11:49:59.510Z,6.70
2017-12-27T11:52:27.791Z,6.90
2017-12-27T11:54:56.233Z,7.00
2017-12-27T11:57:24.633Z,7.00
2017-12-27T11:59:52.872Z,7.10
2017-12-27T12:02:21.177Z,7.20
2017-12-27T12:04:50.533Z,7.70
2017-12-27T12:07:19.600Z,7.20
2017-12-27T12:09:47.902Z,7.20
2017-12-27T12:12:16.203Z,7.30
2017-12-27T12:14:44.482Z,7.30
2017-12-27T12:17:12.773Z,7.40
2017-12-27T12:19:41.264Z,7.50
2017-12-27T12:22:10.471Z,7.50
2017-12-27T12:24:38.758Z,7.50
2017-12-27T12:27:07.858Z,7.60
2017-12-27T12:29:36.165Z,7.60
2017-12-27T12:32:05.221Z,7.80
2017-12-27T12:34:33.507Z,7.90
2017-12-27T12:37:02.204Z,7.90
2017-12-27T12:39:30.686Z,7.80
2017-12-27T12:41:59.019Z,7.70
2017-12-27T12:44:27.647Z,7.60
2017-12-27T12:46:56.594Z,7.50
2017-12-27T12:49:24.847Z,7.50
2017-12-27T12:51:53.254Z,7.40
2017-12-27T12:54:21.594Z,7.40
2017-12-27T12:56:51.075Z,7.40
2017-12-27T12:59:19.351Z,7.30
2017-12-27T13:01:47.631Z,7.30
2017-12-27T13:04:16.516Z,7.30
2017-12-27T13:06:44.932Z,7.30
2017-12-27T13:09:14.010Z,7.20
2017-12-27T13:11:42.344Z,7.20
2017-12-27T13:14:10.619Z,7.20
2017-12-27T13:16:38.924Z,7.20
2017-12-27T13:19:07.481Z,7.20
2017-12-27T13:21:35.843Z,7.20
2017-12-27T13:24:04.112Z,7.20
2017-12-27T13:26:34.057Z,7.10
2017-12-27T13:29:02.392Z,7.10
2017-12-27T13:31:30.649Z,7.00
2017-12-27T13:33:59.721Z,7.00
2017-12-27T13:36:29.245Z,6.90
2017-12-27T13:38:57.667Z,6.90
2017-12-27T13:41:26.729Z,6.80
2017-12-27T13:43:55.015Z,6.80
2017-12-27T13:46:23.314Z,6.80
2017-12-27T13:48:51.594Z,6.80
2017-12-27T13:51:19.890Z,6.80
2017-12-27T13:53:49.270Z,6.80
2017-12-27T13:56:17.579Z,6.70
2017-12-27T13:58:45.853Z,6.70
2017-12-27T14:01:14.129Z,6.70
2017-12-27T14:03:42.478Z,6.70
2017-12-27T14:06:10.748Z,6.60
2017-12-27T14:08:39.128Z,6.60
2017-12-27T14:11:08.239Z,6.50
2017-12-27T14:13:36.523Z,6.50
2017-12-27T14:16:04.829Z,6.50
2017-12-27T14:18:33.145Z,6.50
2017-12-27T14:21:01.453Z,6.50
2017-12-27T14:23:29.729Z,6.50
2017-12-27T14:25:58.061Z,6.50
2017-12-27T14:28:26.320Z,6.50
2017-12-27T14:30:54.597Z,6.50
2017-12-27T14:33:22.944Z,6.40
2017-12-27T14:35:51.212Z,6.40
2017-12-27T14:38:19.507Z,6.40
2017-12-27T14:40:48.548Z,6.40
2017-12-27T14:43:16.873Z,6.40
2017-12-27T14:45:45.157Z,6.40
2017-12-27T14:48:14.199Z,6.50
2017-12-27T14:50:42.500Z,6.40
2017-12-27T14:53:10.788Z,6.50
2017-12-27T14:55:39.184Z,6.40
2017-12-27T14:58:07.449Z,6.40
2017-12-27T15:00:35.757Z,6.40
2017-12-27T15:03:04.831Z,6.30
2017-12-27T15:05:33.513Z,6.30
2017-12-27T15:08:01.756Z,6.30
2017-12-27T15:10:30.067Z,6.30
2017-12-27T15:12:58.349Z,6.20
2017-12-27T15:15:26.622Z,6.20
2017-12-27T15:17:55.152Z,6.10
2017-12-27T15:20:23.430Z,6.00
2017-12-27T15:22:51.728Z,6.00
2017-12-27T15:25:19.987Z,6.00
2017-12-27T15:27:48.280Z,5.90
2017-12-27T15:30:16.581Z,5.90
2017-12-27T15:32:44.881Z,5.90
2017-12-27T15:35:13.208Z,5.90
2017-12-27T15:37:41.486Z,5.90
2017-12-27T15:40:09.816Z,5.90
2017-12-27T15:42:38.092Z,5.80
2017-12-27T15:45:07.183Z,5.80
2017-12-27T15:47:35.476Z,5.80
2017-12-27T15:50:04.534Z,5.70
2017-12-27T15:52:32.843Z,5.70
2017-12-27T15:55:01.121Z,5.80
2017-12-27T15:57:29.416Z,5.80
2017-12-27T16:00:01.484Z,5.80
2017-12-27T16:02:30.558Z,5.80
2017-12-27T16:04:58.840Z,5.80
2017-12-27T16:07:27.183Z,5.90
2017-12-27T16:09:55.468Z,5.90
2017-12-27T16:12:23.764Z,5.90
2017-12-27T16:14:52.124Z,5.90
2017-12-27T16:17:21.245Z,6.00
2017-12-27T16:19:49.631Z,6.00
2017-12-27T16:22:17.914Z,6.00
2017-12-27T16:24:46.233Z,6.00
2017-12-27T16:27:14.501Z,6.00
2017-12-27T16:29:42.798Z,6.10
2017-12-27T16:32:11.106Z,6.10
2017-12-27T16:34:39.388Z,6.10
2017-12-27T16:37:07.737Z,6.20
2017-12-27T16:39:35.973Z,6.10
2017-12-27T16:42:05.345Z,6.20
2017-12-27T16:44:33.629Z,6.20
2017-12-27T16:47:01.902Z,6.30
2017-12-27T16:49:30.207Z,6.30
2017-12-27T16:51:59.261Z,6.30
2017-12-27T16:54:27.605Z,6.30
2017-12-27T16:56:55.884Z,6.30
2017-12-27T16:59:24.265Z,6.30
2017-12-27T17:01:52.590Z,6.40
2017-12-27T17:04:21.293Z,6.40
2017-12-27T17:06:50.496Z,6.40
2017-12-27T17:09:18.794Z,6.40
2017-12-27T17:11:47.128Z,6.40
2017-12-27T17:14:15.388Z,6.40
2017-12-27T17:16:43.715Z,6.50
2017-12-27T17:19:12.781Z,6.50
2017-12-27T17:21:41.134Z,6.50
2017-12-27T17:24:09.428Z,6.50
2017-12-27T17:26:37.758Z,6.50
2017-12-27T17:29:06.071Z,6.50
2017-12-27T17:31:34.398Z,6.60
2017-12-27T17:34:03.497Z,6.60
2017-12-27T17:36:31.778Z,6.60
2017-12-27T17:39:00.835Z,6.60
2017-12-27T17:41:29.165Z,6.60
2017-12-27T17:43:57.498Z,6.60
2017-12-27T17:46:25.819Z,6.60
2017-12-27T17:48:54.892Z,6.70
2017-12-27T17:51:23.210Z,6.70
2017-12-27T17:53:51.516Z,6.70
2017-12-27T17:56:19.825Z,6.70
2017-12-27T17:58:48.116Z,6.70
2017-12-27T18:01:17.196Z,6.80
2017-12-27T18:03:45.531Z,6.70
2017-12-27T18:06:13.792Z,6.70
2017-12-27T18:08:42.106Z,6.80
2017-12-27T18:11:10.373Z,6.80
2017-12-27T18:13:38.844Z,6.80
2017-12-27T18:16:08.784Z,6.80
2017-12-27T18:18:37.054Z,6.80
2017-12-27T18:21:05.378Z,6.90
2017-12-27T18:23:34.427Z,6.90
2017-12-27T18:26:02.734Z,6.90
2017-12-27T18:28:31.396Z,6.90
2017-12-27T18:30:59.730Z,6.90
2017-12-27T18:33:28.042Z,7.00
2017-12-27T18:35:56.393Z,7.00
2017-12-27T18:38:25.485Z,7.00
2017-12-27T18:40:53.785Z,7.00
2017-12-27T18:43:22.110Z,7.00
2017-12-27T18:45:50.400Z,7.00
2017-12-27T18:48:19.496Z,7.00
2017-12-27T18:50:47.775Z,7.00
2017-12-27T18:53:16.086Z,7.00
2017-12-27T18:55:44.364Z,7.00
2017-12-27T18:58:12.673Z,7.00
2017-12-27T19:00:43.275Z,7.00
2017-12-27T19:03:14.598Z,7.00
2017-12-27T19:05:43.698Z,7.10
2017-12-27T19:08:12.127Z,7.00
2017-12-27T19:10:43.820Z,7.10
2017-12-27T19:13:12.084Z,7.10
2017-12-27T19:15:40.381Z,7.10
2017-12-27T19:18:09.476Z,7.10
2017-12-27T19:20:37.755Z,7.00
2017-12-27T19:23:06.853Z,7.10
2017-12-27T19:25:35.165Z,7.10
2017-12-27T19:28:03.462Z,7.10
2017-12-27T19:30:31.750Z,7.10
2017-12-27T19:33:00.093Z,7.10
2017-12-27T19:35:28.370Z,7.10
2017-12-27T19:37:56.656Z,7.10
2017-12-27T19:40:24.962Z,7.10
2017-12-27T19:42:53.240Z,7.10
2017-12-27T19:45:21.758Z,7.10
2017-12-27T19:47:50.078Z,7.10
2017-12-27T19:50:18.379Z,7.10
2017-12-27T19:52:46.654Z,7.10
2017-12-27T19:55:14.934Z,7.10
2017-12-27T19:57:43.261Z,7.10
2017-12-27T20:00:11.616Z,7.10
2017-12-27T20:02:40.745Z,7.20
2017-12-27T20:05:09.083Z,7.10
2017-12-27T20:07:37.380Z,7.20
2017-12-27T20:10:06.479Z,7.20
2017-12-27T20:12:38.620Z,7.20
2017-12-27T20:15:08.799Z,7.20
2017-12-27T20:17:37.076Z,7.20
2017-12-27T20:20:05.378Z,7.30
2017-12-27T20:22:34.417Z,7.30
2017-12-27T20:25:02.738Z,7.30
2017-12-27T20:27:31.085Z,7.30
2017-12-27T20:30:00.212Z,7.30
2017-12-27T20:32:28.649Z,7.40
2017-12-27T20:34:57.773Z,7.40
2017-12-27T20:37:26.230Z,7.40
2017-12-27T20:39:54.505Z,7.50
2017-12-27T20:42:22.821Z,7.50
2017-12-27T20:44:51.143Z,7.50
2017-12-27T20:47:19.452Z,7.50
2017-12-27T20:49:48.499Z,7.60
2017-12-27T20:52:16.844Z,7.60
2017-12-27T20:54:45.134Z,7.60
2017-12-27T20:57:13.507Z,7.60
2017-12-27T20:59:41.775Z,7.60
2017-12-27T21:02:10.086Z,7.60
2017-12-27T21:04:38.424Z,7.50
2017-12-27T21:07:07.497Z,7.50
2017-12-27T21:09:36.600Z,7.40
2017-12-27T21:12:04.873Z,7.40
2017-12-27T21:14:33.176Z,7.40
2017-12-27T21:17:02.470Z,7.40
2017-12-27T21:19:31.561Z,7.30
2017-12-27T21:21:59.930Z,7.30
2017-12-27T21:24:28.740Z,7.30
2017-12-27T21:26:57.054Z,7.30
2017-12-27T21:29:25.321Z,7.30
2017-12-27T21:31:53.645Z,7.30
2017-12-27T21:34:21.945Z,7.30
2017-12-27T21:36:50.294Z,7.30
2017-12-27T21:39:18.591Z,7.30
2017-12-27T21:41:46.879Z,7.30
2017-12-27T21:44:15.213Z,7.30
2017-12-27T21:46:43.470Z,7.30
2017-12-27T21:49:17.343Z,7.30
2017-12-27T21:51:46.441Z,7.30
2017-12-27T21:54:15.548Z,7.40
2017-12-27T21:56:44.633Z,7.30
2017-12-27T21:59:18.667Z,7.30
2017-12-27T22:01:47.713Z,7.30
2017-12-27T22:04:16.073Z,7.30
2017-12-27T22:06:44.501Z,7.30
2017-12-27T22:09:12.771Z,7.30
2017-12-27T22:11:41.069Z,7.30
2017-12-27T22:14:10.125Z,7.30
2017-12-27T22:16:40.193Z,7.30
2017-12-27T22:19:09.566Z,7.30
2017-12-27T22:21:37.874Z,7.40
2017-12-27T22:24:06.209Z,7.40
2017-12-27T22:26:34.521Z,7.50
2017-12-27T22:29:03.603Z,7.60
2017-12-27T22:31:31.935Z,7.60
2017-12-27T22:34:00.238Z,7.60
2017-12-27T22:36:28.532Z,7.70
2017-12-27T22:38:56.874Z,7.70
2017-12-27T22:41:25.241Z,7.80
2017-12-27T22:43:53.519Z,7.90
2017-12-27T22:46:21.823Z,7.90
2017-12-27T22:48:50.132Z,8.00
2017-12-27T22:51:18.440Z,8.00
2017-12-27T22:53:46.719Z,8.00
2017-12-27T22:56:15.035Z,8.00
2017-12-27T22:58:43.355Z,8.00
2017-12-27T23:01:12.424Z,8.10
2017-12-27T23:03:40.737Z,8.10
2017-12-27T23:06:09.043Z,8.10
2017-12-27T23:08:37.350Z,8.20
2017-12-27T23:11:05.669Z,8.20
2017-12-27T23:13:34.771Z,8.20
2017-12-27T23:16:03.126Z,8.20
2017-12-27T23:18:31.376Z,8.30
2017-12-27T23:20:59.683Z,8.20
2017-12-27T23:23:27.950Z,8.20
2017-12-27T23:25:56.400Z,8.20
2017-12-27T23:28:24.664Z,8.20
2017-12-27T23:30:52.961Z,8.20
2017-12-27T23:33:21.235Z,8.20
2017-12-27T23:35:49.570Z,8.20
2017-12-27T23:38:18.637Z,8.10
2017-12-27T23:40:46.964Z,8.20
2017-12-27T23:43:15.245Z,8.20
2017-12-27T23:45:43.528Z,8.10
2017-12-27T23:48:11.848Z,8.10
2017-12-27T23:50:40.126Z,8.10
2017-12-27T23:53:08.477Z,8.10
2017-12-27T23:55:36.800Z,8.10
2017-12-27T23:58:05.150Z,8.10
